sensor_id;sensor_type;location;lat;lon;timestamp;P1;durP1;ratioP1;P2;durP2;ratioP2
43216;SDS011;60511;42.686;23.300;2023-02-11T00:00:03;9.95;;;8.98;;
43216;SDS011;60511;42.686;23.300;2023-02-11T00:02:04;9.65;;;8.75;;
43216;SDS011;60511;42.686;23.300;2023-02-11T00:04:05;8.70;;;7.90;;
43216;SDS011;60511;42.686;23.300;2023-02-11T00:06:06;9.73;;;8.73;;
43216;SDS011;60511;42.686;23.300;2023-02-11T00:08:11;9.07;;;8.18;;
43216;SDS011;60511;42.686;23.300;2023-02-11T00:10:15;9.30;;;8.40;;
43216;SDS011;60511;42.686;23.300;2023-02-11T00:12:16;10.50;;;9.40;;
43216;SDS011;60511;42.686;23.300;2023-02-11T00:14:18;9.80;;;8.90;;
43216;SDS011;60511;42.686;23.300;2023-02-11T00:16:19;10.50;;;9.40;;
43216;SDS011;60511;42.686;23.300;2023-02-11T00:18:20;9.80;;;8.80;;
43216;SDS011;60511;42.686;23.300;2023-02-11T00:20:22;9.75;;;8.85;;
43216;SDS011;60511;42.686;23.300;2023-02-11T00:22:23;10.32;;;9.23;;
43216;SDS011;60511;42.686;23.300;2023-02-11T00:24:23;9.90;;;8.98;;
43216;SDS011;60511;42.686;23.300;2023-02-11T00:26:25;9.48;;;8.52;;
43216;SDS011;60511;42.686;23.300;2023-02-11T00:30:27;10.15;;;9.10;;
43216;SDS011;60511;42.686;23.300;2023-02-11T00:32:28;9.30;;;8.43;;
43216;SDS011;60511;42.686;23.300;2023-02-11T00:34:28;9.48;;;8.57;;
43216;SDS011;60511;42.686;23.300;2023-02-11T00:36:29;8.82;;;8.00;;
43216;SDS011;60511;42.686;23.300;2023-02-11T00:38:29;9.13;;;8.32;;
43216;SDS011;60511;42.686;23.300;2023-02-11T00:40:31;9.13;;;8.25;;
43216;SDS011;60511;42.686;23.300;2023-02-11T00:42:31;10.25;;;9.25;;
43216;SDS011;60511;42.686;23.300;2023-02-11T00:44:34;9.48;;;8.57;;
43216;SDS011;60511;42.686;23.300;2023-02-11T00:46:34;9.50;;;8.50;;
43216;SDS011;60511;42.686;23.300;2023-02-11T00:48:35;8.88;;;8.05;;
43216;SDS011;60511;42.686;23.300;2023-02-11T00:50:35;9.25;;;8.35;;
43216;SDS011;60511;42.686;23.300;2023-02-11T00:52:36;9.50;;;8.60;;
43216;SDS011;60511;42.686;23.300;2023-02-11T00:54:36;9.43;;;8.52;;
43216;SDS011;60511;42.686;23.300;2023-02-11T00:56:36;9.30;;;8.23;;
43216;SDS011;60511;42.686;23.300;2023-02-11T00:58:37;9.10;;;8.25;;
43216;SDS011;60511;42.686;23.300;2023-02-11T01:00:37;9.95;;;9.00;;
43216;SDS011;60511;42.686;23.300;2023-02-11T01:02:38;9.82;;;8.82;;
43216;SDS011;60511;42.686;23.300;2023-02-11T01:04:38;9.40;;;8.50;;
43216;SDS011;60511;42.686;23.300;2023-02-11T01:06:38;9.57;;;8.60;;
43216;SDS011;60511;42.686;23.300;2023-02-11T01:08:39;9.25;;;8.35;;
43216;SDS011;60511;42.686;23.300;2023-02-11T01:10:39;8.90;;;8.00;;
43216;SDS011;60511;42.686;23.300;2023-02-11T01:12:40;9.18;;;8.35;;
43216;SDS011;60511;42.686;23.300;2023-02-11T01:14:40;9.50;;;8.60;;
43216;SDS011;60511;42.686;23.300;2023-02-11T01:16:42;9.23;;;8.32;;
43216;SDS011;60511;42.686;23.300;2023-02-11T01:18:43;8.60;;;7.80;;
43216;SDS011;60511;42.686;23.300;2023-02-11T01:20:43;8.02;;;7.30;;
43216;SDS011;60511;42.686;23.300;2023-02-11T01:22:44;10.02;;;9.02;;
43216;SDS011;60511;42.686;23.300;2023-02-11T01:24:44;9.07;;;8.18;;
43216;SDS011;60511;42.686;23.300;2023-02-11T01:26:45;9.65;;;8.65;;
43216;SDS011;60511;42.686;23.300;2023-02-11T01:28:45;8.63;;;7.82;;
43216;SDS011;60511;42.686;23.300;2023-02-11T01:30:46;8.77;;;7.88;;
43216;SDS011;60511;42.686;23.300;2023-02-11T01:32:46;9.27;;;8.38;;
43216;SDS011;60511;42.686;23.300;2023-02-11T01:34:47;8.73;;;7.95;;
43216;SDS011;60511;42.686;23.300;2023-02-11T01:36:47;9.18;;;8.27;;
43216;SDS011;60511;42.686;23.300;2023-02-11T01:38:47;9.18;;;8.30;;
43216;SDS011;60511;42.686;23.300;2023-02-11T01:40:52;8.63;;;7.82;;
43216;SDS011;60511;42.686;23.300;2023-02-11T01:42:58;8.95;;;8.10;;
43216;SDS011;60511;42.686;23.300;2023-02-11T01:44:59;9.05;;;8.25;;
43216;SDS011;60511;42.686;23.300;2023-02-11T01:47:20;10.38;;;9.23;;
43216;SDS011;60511;42.686;23.300;2023-02-11T01:49:25;9.02;;;8.13;;
43216;SDS011;60511;42.686;23.300;2023-02-11T01:51:31;8.80;;;7.90;;
43216;SDS011;60511;42.686;23.300;2023-02-11T01:53:36;8.40;;;7.60;;
43216;SDS011;60511;42.686;23.300;2023-02-11T01:55:56;8.93;;;8.07;;
43216;SDS011;60511;42.686;23.300;2023-02-11T01:58:15;8.85;;;7.95;;
43216;SDS011;60511;42.686;23.300;2023-02-11T02:02:45;9.02;;;8.15;;
43216;SDS011;60511;42.686;23.300;2023-02-11T02:05:07;8.65;;;7.75;;
43216;SDS011;60511;42.686;23.300;2023-02-11T02:07:29;8.70;;;7.90;;
43216;SDS011;60511;42.686;23.300;2023-02-11T02:09:36;8.50;;;7.70;;
43216;SDS011;60511;42.686;23.300;2023-02-11T02:11:41;9.00;;;8.10;;
43216;SDS011;60511;42.686;23.300;2023-02-11T02:13:41;8.38;;;7.57;;
43216;SDS011;60511;42.686;23.300;2023-02-11T02:15:50;9.48;;;8.52;;
43216;SDS011;60511;42.686;23.300;2023-02-11T02:18:00;8.27;;;7.50;;
43216;SDS011;60511;42.686;23.300;2023-02-11T02:20:45;8.30;;;7.50;;
43216;SDS011;60511;42.686;23.300;2023-02-11T02:25:12;9.30;;;8.32;;
43216;SDS011;60511;42.686;23.300;2023-02-11T02:34:45;8.23;;;7.22;;
43216;SDS011;60511;42.686;23.300;2023-02-11T02:39:17;8.38;;;7.55;;
43216;SDS011;60511;42.686;23.300;2023-02-11T02:41:26;8.82;;;8.02;;
43216;SDS011;60511;42.686;23.300;2023-02-11T02:43:30;8.65;;;7.85;;
43216;SDS011;60511;42.686;23.300;2023-02-11T02:45:32;8.38;;;7.57;;
43216;SDS011;60511;42.686;23.300;2023-02-11T02:47:32;8.23;;;7.45;;
43216;SDS011;60511;42.686;23.300;2023-02-11T02:49:33;8.40;;;7.60;;
43216;SDS011;60511;42.686;23.300;2023-02-11T02:56:12;8.85;;;7.95;;
43216;SDS011;60511;42.686;23.300;2023-02-11T03:05:53;8.77;;;7.97;;
43216;SDS011;60511;42.686;23.300;2023-02-11T03:08:06;9.50;;;8.38;;
43216;SDS011;60511;42.686;23.300;2023-02-11T03:10:13;8.77;;;7.97;;
43216;SDS011;60511;42.686;23.300;2023-02-11T03:12:18;8.57;;;7.78;;
43216;SDS011;60511;42.686;23.300;2023-02-11T03:14:21;8.45;;;7.65;;
43216;SDS011;60511;42.686;23.300;2023-02-11T03:16:26;8.73;;;7.82;;
43216;SDS011;60511;42.686;23.300;2023-02-11T03:18:27;8.40;;;7.60;;
43216;SDS011;60511;42.686;23.300;2023-02-11T03:20:29;8.73;;;7.82;;
43216;SDS011;60511;42.686;23.300;2023-02-11T03:22:40;8.38;;;7.50;;
43216;SDS011;60511;42.686;23.300;2023-02-11T03:24:46;8.27;;;7.57;;
43216;SDS011;60511;42.686;23.300;2023-02-11T03:26:48;8.82;;;8.02;;
43216;SDS011;60511;42.686;23.300;2023-02-11T03:33:21;9.23;;;8.32;;
43216;SDS011;60511;42.686;23.300;2023-02-11T03:35:31;8.07;;;7.28;;
43216;SDS011;60511;42.686;23.300;2023-02-11T03:37:39;8.10;;;7.30;;
43216;SDS011;60511;42.686;23.300;2023-02-11T03:39:45;9.05;;;8.15;;
43216;SDS011;60511;42.686;23.300;2023-02-11T03:41:52;9.07;;;8.27;;
43216;SDS011;60511;42.686;23.300;2023-02-11T03:43:55;7.95;;;7.22;;
43216;SDS011;60511;42.686;23.300;2023-02-11T03:45:58;8.20;;;7.40;;
43216;SDS011;60511;42.686;23.300;2023-02-11T03:48:04;9.20;;;8.40;;
43216;SDS011;60511;42.686;23.300;2023-02-11T03:50:11;8.05;;;7.32;;
43216;SDS011;60511;42.686;23.300;2023-02-11T03:52:15;8.02;;;7.20;;
43216;SDS011;60511;42.686;23.300;2023-02-11T03:54:19;8.23;;;7.13;;
43216;SDS011;60511;42.686;23.300;2023-02-11T03:56:24;7.68;;;6.97;;
43216;SDS011;60511;42.686;23.300;2023-02-11T03:58:28;8.32;;;7.53;;
43216;SDS011;60511;42.686;23.300;2023-02-11T04:00:32;9.05;;;8.20;;
43216;SDS011;60511;42.686;23.300;2023-02-11T04:02:36;8.35;;;7.55;;
43216;SDS011;60511;42.686;23.300;2023-02-11T04:04:36;8.43;;;7.63;;
43216;SDS011;60511;42.686;23.300;2023-02-11T04:06:37;8.15;;;7.40;;
43216;SDS011;60511;42.686;23.300;2023-02-11T04:08:37;8.38;;;7.68;;
43216;SDS011;60511;42.686;23.300;2023-02-11T04:10:38;8.38;;;7.47;;
43216;SDS011;60511;42.686;23.300;2023-02-11T04:12:38;8.15;;;7.38;;
43216;SDS011;60511;42.686;23.300;2023-02-11T04:14:38;8.00;;;7.28;;
43216;SDS011;60511;42.686;23.300;2023-02-11T04:16:39;8.30;;;7.55;;
43216;SDS011;60511;42.686;23.300;2023-02-11T04:18:39;7.78;;;7.07;;
43216;SDS011;60511;42.686;23.300;2023-02-11T04:20:39;8.82;;;8.02;;
43216;SDS011;60511;42.686;23.300;2023-02-11T04:22:40;8.88;;;7.97;;
43216;SDS011;60511;42.686;23.300;2023-02-11T04:24:40;7.82;;;7.13;;
43216;SDS011;60511;42.686;23.300;2023-02-11T04:26:42;9.15;;;8.25;;
43216;SDS011;60511;42.686;23.300;2023-02-11T04:28:43;9.13;;;8.23;;
43216;SDS011;60511;42.686;23.300;2023-02-11T04:30:43;8.30;;;7.50;;
43216;SDS011;60511;42.686;23.300;2023-02-11T04:32:44;8.00;;;7.20;;
43216;SDS011;60511;42.686;23.300;2023-02-11T04:34:44;8.50;;;7.72;;
43216;SDS011;60511;42.686;23.300;2023-02-11T04:36:44;8.57;;;7.78;;
43216;SDS011;60511;42.686;23.300;2023-02-11T04:38:45;8.38;;;7.57;;
43216;SDS011;60511;42.686;23.300;2023-02-11T04:40:45;9.30;;;8.40;;
43216;SDS011;60511;42.686;23.300;2023-02-11T04:42:45;7.85;;;7.15;;
43216;SDS011;60511;42.686;23.300;2023-02-11T04:44:46;9.52;;;7.38;;
43216;SDS011;60511;42.686;23.300;2023-02-11T04:46:46;8.30;;;7.50;;
43216;SDS011;60511;42.686;23.300;2023-02-11T04:48:47;7.55;;;6.85;;
43216;SDS011;60511;42.686;23.300;2023-02-11T04:50:47;9.30;;;8.40;;
43216;SDS011;60511;42.686;23.300;2023-02-11T04:52:48;8.50;;;7.70;;
43216;SDS011;60511;42.686;23.300;2023-02-11T04:54:48;7.85;;;7.05;;
43216;SDS011;60511;42.686;23.300;2023-02-11T04:56:48;8.05;;;7.25;;
43216;SDS011;60511;42.686;23.300;2023-02-11T04:58:50;7.82;;;7.03;;
43216;SDS011;60511;42.686;23.300;2023-02-11T05:00:50;8.07;;;7.38;;
43216;SDS011;60511;42.686;23.300;2023-02-11T05:02:50;8.82;;;7.97;;
43216;SDS011;60511;42.686;23.300;2023-02-11T05:04:51;8.80;;;8.00;;
43216;SDS011;60511;42.686;23.300;2023-02-11T05:06:51;8.35;;;7.55;;
43216;SDS011;60511;42.686;23.300;2023-02-11T05:08:51;8.52;;;7.43;;
43216;SDS011;60511;42.686;23.300;2023-02-11T05:10:52;8.13;;;7.32;;
43216;SDS011;60511;42.686;23.300;2023-02-11T05:12:52;8.48;;;7.68;;
43216;SDS011;60511;42.686;23.300;2023-02-11T05:14:52;8.63;;;7.72;;
43216;SDS011;60511;42.686;23.300;2023-02-11T05:16:53;7.95;;;7.25;;
43216;SDS011;60511;42.686;23.300;2023-02-11T05:18:53;9.02;;;8.13;;
43216;SDS011;60511;42.686;23.300;2023-02-11T05:20:54;8.10;;;7.35;;
43216;SDS011;60511;42.686;23.300;2023-02-11T05:22:55;7.82;;;7.13;;
43216;SDS011;60511;42.686;23.300;2023-02-11T05:24:55;8.27;;;7.57;;
43216;SDS011;60511;42.686;23.300;2023-02-11T05:26:55;8.63;;;7.82;;
43216;SDS011;60511;42.686;23.300;2023-02-11T05:28:56;8.57;;;7.78;;
43216;SDS011;60511;42.686;23.300;2023-02-11T05:30:56;8.43;;;7.63;;
43216;SDS011;60511;42.686;23.300;2023-02-11T05:32:56;8.23;;;7.50;;
43216;SDS011;60511;42.686;23.300;2023-02-11T05:34:57;8.65;;;7.65;;
43216;SDS011;60511;42.686;23.300;2023-02-11T05:36:57;8.60;;;7.68;;
43216;SDS011;60511;42.686;23.300;2023-02-11T05:38:58;8.07;;;7.28;;
43216;SDS011;60511;42.686;23.300;2023-02-11T05:40:58;8.25;;;7.45;;
43216;SDS011;60511;42.686;23.300;2023-02-11T05:42:59;8.52;;;7.72;;
43216;SDS011;60511;42.686;23.300;2023-02-11T05:45:00;8.77;;;7.97;;
43216;SDS011;60511;42.686;23.300;2023-02-11T05:47:00;8.38;;;7.57;;
43216;SDS011;60511;42.686;23.300;2023-02-11T05:49:01;8.35;;;7.55;;
43216;SDS011;60511;42.686;23.300;2023-02-11T05:51:01;9.30;;;8.38;;
43216;SDS011;60511;42.686;23.300;2023-02-11T05:53:02;8.50;;;7.80;;
43216;SDS011;60511;42.686;23.300;2023-02-11T05:55:03;8.98;;;8.07;;
43216;SDS011;60511;42.686;23.300;2023-02-11T05:57:03;8.95;;;8.05;;
43216;SDS011;60511;42.686;23.300;2023-02-11T05:59:04;8.48;;;7.68;;
43216;SDS011;60511;42.686;23.300;2023-02-11T06:01:04;8.60;;;7.85;;
43216;SDS011;60511;42.686;23.300;2023-02-11T06:03:04;8.65;;;7.85;;
43216;SDS011;60511;42.686;23.300;2023-02-11T06:05:05;9.20;;;7.85;;
43216;SDS011;60511;42.686;23.300;2023-02-11T06:07:06;8.70;;;7.80;;
43216;SDS011;60511;42.686;23.300;2023-02-11T06:09:06;8.45;;;7.75;;
43216;SDS011;60511;42.686;23.300;2023-02-11T06:11:08;9.25;;;7.53;;
43216;SDS011;60511;42.686;23.300;2023-02-11T06:13:08;8.25;;;7.45;;
43216;SDS011;60511;42.686;23.300;2023-02-11T06:15:08;8.90;;;8.02;;
43216;SDS011;60511;42.686;23.300;2023-02-11T06:17:09;8.55;;;7.78;;
43216;SDS011;60511;42.686;23.300;2023-02-11T06:19:10;8.88;;;8.07;;
43216;SDS011;60511;42.686;23.300;2023-02-11T06:21:11;8.82;;;7.93;;
43216;SDS011;60511;42.686;23.300;2023-02-11T06:23:11;8.93;;;8.13;;
43216;SDS011;60511;42.686;23.300;2023-02-11T06:25:12;8.07;;;7.28;;
43216;SDS011;60511;42.686;23.300;2023-02-11T06:27:13;8.68;;;7.97;;
43216;SDS011;60511;42.686;23.300;2023-02-11T06:29:13;8.55;;;7.75;;
43216;SDS011;60511;42.686;23.300;2023-02-11T06:31:14;8.38;;;7.57;;
43216;SDS011;60511;42.686;23.300;2023-02-11T06:33:14;10.25;;;8.38;;
43216;SDS011;60511;42.686;23.300;2023-02-11T06:35:15;8.55;;;7.75;;
43216;SDS011;60511;42.686;23.300;2023-02-11T06:37:15;9.43;;;8.45;;
43216;SDS011;60511;42.686;23.300;2023-02-11T06:39:16;8.73;;;7.93;;
43216;SDS011;60511;42.686;23.300;2023-02-11T06:41:17;8.32;;;7.63;;
43216;SDS011;60511;42.686;23.300;2023-02-11T06:43:20;9.10;;;8.23;;
43216;SDS011;60511;42.686;23.300;2023-02-11T06:45:21;9.32;;;8.45;;
43216;SDS011;60511;42.686;23.300;2023-02-11T06:47:22;9.00;;;8.10;;
43216;SDS011;60511;42.686;23.300;2023-02-11T06:49:22;9.07;;;8.18;;
43216;SDS011;60511;42.686;23.300;2023-02-11T06:51:22;9.40;;;8.48;;
43216;SDS011;60511;42.686;23.300;2023-02-11T06:53:23;9.40;;;8.60;;
43216;SDS011;60511;42.686;23.300;2023-02-11T06:55:24;9.65;;;8.65;;
43216;SDS011;60511;42.686;23.300;2023-02-11T06:57:24;8.90;;;8.10;;
43216;SDS011;60511;42.686;23.300;2023-02-11T06:59:25;8.43;;;7.63;;
43216;SDS011;60511;42.686;23.300;2023-02-11T07:01:26;8.45;;;7.65;;
43216;SDS011;60511;42.686;23.300;2023-02-11T07:03:26;8.68;;;7.88;;
43216;SDS011;60511;42.686;23.300;2023-02-11T07:05:27;8.50;;;7.72;;
43216;SDS011;60511;42.686;23.300;2023-02-11T07:07:27;9.18;;;8.38;;
43216;SDS011;60511;42.686;23.300;2023-02-11T07:09:27;9.02;;;8.23;;
43216;SDS011;60511;42.686;23.300;2023-02-11T07:11:28;9.82;;;8.82;;
43216;SDS011;60511;42.686;23.300;2023-02-11T07:13:29;9.02;;;8.13;;
43216;SDS011;60511;42.686;23.300;2023-02-11T07:15:30;9.98;;;8.80;;
43216;SDS011;60511;42.686;23.300;2023-02-11T07:17:30;9.00;;;8.20;;
43216;SDS011;60511;42.686;23.300;2023-02-11T07:19:30;9.50;;;8.70;;
43216;SDS011;60511;42.686;23.300;2023-02-11T07:21:31;9.25;;;8.38;;
43216;SDS011;60511;42.686;23.300;2023-02-11T07:23:32;9.00;;;8.18;;
43216;SDS011;60511;42.686;23.300;2023-02-11T07:25:34;9.50;;;8.60;;
43216;SDS011;60511;42.686;23.300;2023-02-11T07:27:34;9.43;;;8.52;;
43216;SDS011;60511;42.686;23.300;2023-02-11T07:29:35;9.02;;;8.13;;
43216;SDS011;60511;42.686;23.300;2023-02-11T07:31:35;9.73;;;8.75;;
43216;SDS011;60511;42.686;23.300;2023-02-11T07:33:36;10.10;;;9.13;;
43216;SDS011;60511;42.686;23.300;2023-02-11T07:35:36;9.65;;;8.75;;
43216;SDS011;60511;42.686;23.300;2023-02-11T07:37:37;8.75;;;7.90;;
43216;SDS011;60511;42.686;23.300;2023-02-11T07:39:37;9.73;;;8.82;;
43216;SDS011;60511;42.686;23.300;2023-02-11T07:41:37;9.55;;;8.65;;
43216;SDS011;60511;42.686;23.300;2023-02-11T07:43:38;9.60;;;8.70;;
43216;SDS011;60511;42.686;23.300;2023-02-11T07:45:39;9.50;;;8.60;;
43216;SDS011;60511;42.686;23.300;2023-02-11T07:47:40;9.90;;;8.90;;
43216;SDS011;60511;42.686;23.300;2023-02-11T07:49:41;9.60;;;8.70;;
43216;SDS011;60511;42.686;23.300;2023-02-11T07:51:42;9.63;;;8.80;;
43216;SDS011;60511;42.686;23.300;2023-02-11T07:53:42;9.27;;;8.43;;
43216;SDS011;60511;42.686;23.300;2023-02-11T07:55:43;9.70;;;8.80;;
43216;SDS011;60511;42.686;23.300;2023-02-11T07:57:44;8.95;;;8.05;;
43216;SDS011;60511;42.686;23.300;2023-02-11T07:59:44;9.98;;;8.98;;
43216;SDS011;60511;42.686;23.300;2023-02-11T08:01:45;9.73;;;8.82;;
43216;SDS011;60511;42.686;23.300;2023-02-11T08:03:45;10.10;;;9.20;;
43216;SDS011;60511;42.686;23.300;2023-02-11T08:05:46;9.55;;;8.65;;
43216;SDS011;60511;42.686;23.300;2023-02-11T08:07:49;9.65;;;8.65;;
43216;SDS011;60511;42.686;23.300;2023-02-11T08:09:51;10.18;;;9.18;;
43216;SDS011;60511;42.686;23.300;2023-02-11T08:11:51;10.20;;;9.20;;
43216;SDS011;60511;42.686;23.300;2023-02-11T08:13:52;9.60;;;8.70;;
43216;SDS011;60511;42.686;23.300;2023-02-11T08:15:55;9.23;;;8.40;;
43216;SDS011;60511;42.686;23.300;2023-02-11T08:17:56;9.50;;;8.63;;
43216;SDS011;60511;42.686;23.300;2023-02-11T08:19:57;11.07;;;9.35;;
43216;SDS011;60511;42.686;23.300;2023-02-11T08:21:57;9.25;;;8.35;;
43216;SDS011;60511;42.686;23.300;2023-02-11T08:24:00;10.73;;;9.73;;
43216;SDS011;60511;42.686;23.300;2023-02-11T08:26:05;9.63;;;8.63;;
43216;SDS011;60511;42.686;23.300;2023-02-11T08:28:08;9.95;;;9.05;;
43216;SDS011;60511;42.686;23.300;2023-02-11T08:30:08;9.82;;;8.90;;
43216;SDS011;60511;42.686;23.300;2023-02-11T08:32:09;10.27;;;9.38;;
43216;SDS011;60511;42.686;23.300;2023-02-11T08:34:10;11.02;;;9.93;;
43216;SDS011;60511;42.686;23.300;2023-02-11T08:36:14;10.55;;;9.65;;
43216;SDS011;60511;42.686;23.300;2023-02-11T08:38:17;10.43;;;9.45;;
43216;SDS011;60511;42.686;23.300;2023-02-11T08:40:17;9.88;;;8.98;;
43216;SDS011;60511;42.686;23.300;2023-02-11T08:42:18;11.75;;;10.57;;
43216;SDS011;60511;42.686;23.300;2023-02-11T08:44:19;10.50;;;9.45;;
43216;SDS011;60511;42.686;23.300;2023-02-11T08:46:20;10.80;;;9.75;;
43216;SDS011;60511;42.686;23.300;2023-02-11T08:48:20;10.48;;;9.57;;
43216;SDS011;60511;42.686;23.300;2023-02-11T08:50:21;10.70;;;9.70;;
43216;SDS011;60511;42.686;23.300;2023-02-11T08:52:21;11.15;;;9.95;;
43216;SDS011;60511;42.686;23.300;2023-02-11T08:54:21;11.30;;;9.63;;
43216;SDS011;60511;42.686;23.300;2023-02-11T08:56:22;10.32;;;9.30;;
43216;SDS011;60511;42.686;23.300;2023-02-11T08:58:22;12.40;;;10.52;;
43216;SDS011;60511;42.686;23.300;2023-02-11T09:00:23;12.75;;;10.82;;
43216;SDS011;60511;42.686;23.300;2023-02-11T09:02:23;13.57;;;10.30;;
43216;SDS011;60511;42.686;23.300;2023-02-11T09:04:24;15.75;;;11.43;;
43216;SDS011;60511;42.686;23.300;2023-02-11T09:06:24;21.40;;;11.43;;
43216;SDS011;60511;42.686;23.300;2023-02-11T09:08:25;13.23;;;10.95;;
43216;SDS011;60511;42.686;23.300;2023-02-11T09:10:26;15.05;;;10.65;;
43216;SDS011;60511;42.686;23.300;2023-02-11T09:12:26;18.48;;;11.40;;
43216;SDS011;60511;42.686;23.300;2023-02-11T09:14:27;21.75;;;11.85;;
43216;SDS011;60511;42.686;23.300;2023-02-11T09:16:28;19.30;;;10.95;;
43216;SDS011;60511;42.686;23.300;2023-02-11T09:18:32;31.60;;;10.77;;
43216;SDS011;60511;42.686;23.300;2023-02-11T09:20:33;18.00;;;11.25;;
43216;SDS011;60511;42.686;23.300;2023-02-11T09:22:33;15.65;;;10.43;;
43216;SDS011;60511;42.686;23.300;2023-02-11T09:24:33;18.27;;;10.52;;
43216;SDS011;60511;42.686;23.300;2023-02-11T09:26:34;20.35;;;10.43;;
43216;SDS011;60511;42.686;23.300;2023-02-11T09:28:35;14.13;;;10.38;;
43216;SDS011;60511;42.686;23.300;2023-02-11T09:30:36;14.05;;;10.25;;
43216;SDS011;60511;42.686;23.300;2023-02-11T09:32:37;13.18;;;9.90;;
43216;SDS011;60511;42.686;23.300;2023-02-11T09:34:37;16.50;;;10.65;;
43216;SDS011;60511;42.686;23.300;2023-02-11T09:36:38;15.82;;;10.65;;
43216;SDS011;60511;42.686;23.300;2023-02-11T09:38:40;13.40;;;10.65;;
43216;SDS011;60511;42.686;23.300;2023-02-11T09:40:41;12.25;;;10.07;;
43216;SDS011;60511;42.686;23.300;2023-02-11T09:45:22;23.40;;;10.30;;
43216;SDS011;60511;42.686;23.300;2023-02-11T09:47:29;23.63;;;10.05;;
43216;SDS011;60511;42.686;23.300;2023-02-11T09:49:43;34.20;;;16.30;;
43216;SDS011;60511;42.686;23.300;2023-02-11T09:51:48;29.73;;;11.77;;
43216;SDS011;60511;42.686;23.300;2023-02-11T09:53:55;20.95;;;11.20;;
43216;SDS011;60511;42.686;23.300;2023-02-11T09:56:01;16.95;;;12.10;;
43216;SDS011;60511;42.686;23.300;2023-02-11T09:58:06;17.95;;;10.88;;
43216;SDS011;60511;42.686;23.300;2023-02-11T10:00:26;14.80;;;10.13;;
43216;SDS011;60511;42.686;23.300;2023-02-11T10:02:35;18.42;;;11.25;;
43216;SDS011;60511;42.686;23.300;2023-02-11T10:09:44;12.20;;;9.65;;
43216;SDS011;60511;42.686;23.300;2023-02-11T10:12:08;22.58;;;10.02;;
43216;SDS011;60511;42.686;23.300;2023-02-11T10:14:39;11.60;;;9.70;;
43216;SDS011;60511;42.686;23.300;2023-02-11T10:17:13;12.15;;;10.20;;
43216;SDS011;60511;42.686;23.300;2023-02-11T10:22:12;10.93;;;9.82;;
43216;SDS011;60511;42.686;23.300;2023-02-11T10:24:18;11.00;;;9.90;;
43216;SDS011;60511;42.686;23.300;2023-02-11T10:26:19;12.10;;;9.85;;
43216;SDS011;60511;42.686;23.300;2023-02-11T10:28:28;11.50;;;10.40;;
43216;SDS011;60511;42.686;23.300;2023-02-11T10:30:38;11.45;;;10.27;;
43216;SDS011;60511;42.686;23.300;2023-02-11T10:32:45;13.77;;;10.35;;
43216;SDS011;60511;42.686;23.300;2023-02-11T10:34:51;13.50;;;10.18;;
43216;SDS011;60511;42.686;23.300;2023-02-11T10:36:54;12.45;;;10.25;;
43216;SDS011;60511;42.686;23.300;2023-02-11T10:38:54;11.70;;;10.57;;
43216;SDS011;60511;42.686;23.300;2023-02-11T10:40:57;12.80;;;9.50;;
43216;SDS011;60511;42.686;23.300;2023-02-11T10:42:57;11.88;;;10.40;;
43216;SDS011;60511;42.686;23.300;2023-02-11T10:45:03;11.13;;;10.02;;
43216;SDS011;60511;42.686;23.300;2023-02-11T10:47:14;14.55;;;10.20;;
43216;SDS011;60511;42.686;23.300;2023-02-11T10:51:56;11.75;;;9.25;;
43216;SDS011;60511;42.686;23.300;2023-02-11T10:54:19;11.05;;;9.90;;
43216;SDS011;60511;42.686;23.300;2023-02-11T10:56:21;11.18;;;10.05;;
43216;SDS011;60511;42.686;23.300;2023-02-11T10:58:27;12.18;;;9.38;;
43216;SDS011;60511;42.686;23.300;2023-02-11T11:02:35;10.82;;;9.77;;
43216;SDS011;60511;42.686;23.300;2023-02-11T11:04:44;11.07;;;9.98;;
43216;SDS011;60511;42.686;23.300;2023-02-11T11:06:44;11.05;;;9.82;;
43216;SDS011;60511;42.686;23.300;2023-02-11T11:10:47;11.05;;;9.38;;
43216;SDS011;60511;42.686;23.300;2023-02-11T11:13:02;10.25;;;9.27;;
43216;SDS011;60511;42.686;23.300;2023-02-11T11:17:10;10.77;;;9.35;;
43216;SDS011;60511;42.686;23.300;2023-02-11T11:19:21;10.80;;;9.13;;
43216;SDS011;60511;42.686;23.300;2023-02-11T11:21:24;11.35;;;9.57;;
43216;SDS011;60511;42.686;23.300;2023-02-11T11:23:29;10.57;;;9.48;;
43216;SDS011;60511;42.686;23.300;2023-02-11T11:25:30;10.43;;;9.23;;
43216;SDS011;60511;42.686;23.300;2023-02-11T11:27:30;11.07;;;9.98;;
43216;SDS011;60511;42.686;23.300;2023-02-11T11:29:42;9.57;;;8.68;;
43216;SDS011;60511;42.686;23.300;2023-02-11T11:33:54;10.43;;;9.30;;
43216;SDS011;60511;42.686;23.300;2023-02-11T11:36:02;9.85;;;8.82;;
43216;SDS011;60511;42.686;23.300;2023-02-11T11:38:05;9.93;;;8.93;;
43216;SDS011;60511;42.686;23.300;2023-02-11T11:42:29;11.18;;;9.05;;
43216;SDS011;60511;42.686;23.300;2023-02-11T11:44:33;10.77;;;9.77;;
43216;SDS011;60511;42.686;23.300;2023-02-11T11:46:36;9.95;;;9.05;;
43216;SDS011;60511;42.686;23.300;2023-02-11T11:48:41;10.48;;;9.40;;
43216;SDS011;60511;42.686;23.300;2023-02-11T11:50:51;9.95;;;9.05;;
43216;SDS011;60511;42.686;23.300;2023-02-11T11:52:59;10.40;;;8.63;;
43216;SDS011;60511;42.686;23.300;2023-02-11T11:55:03;10.75;;;9.35;;
43216;SDS011;60511;42.686;23.300;2023-02-11T11:57:17;9.85;;;8.95;;
43216;SDS011;60511;42.686;23.300;2023-02-11T11:59:21;10.68;;;9.40;;
43216;SDS011;60511;42.686;23.300;2023-02-11T12:09:08;10.40;;;8.95;;
43216;SDS011;60511;42.686;23.300;2023-02-11T12:20:34;9.77;;;8.77;;
43216;SDS011;60511;42.686;23.300;2023-02-11T12:22:46;9.40;;;8.48;;
43216;SDS011;60511;42.686;23.300;2023-02-11T12:24:59;9.10;;;8.20;;
43216;SDS011;60511;42.686;23.300;2023-02-11T12:27:14;9.60;;;8.68;;
43216;SDS011;60511;42.686;23.300;2023-02-11T12:31:55;9.38;;;8.38;;
43216;SDS011;60511;42.686;23.300;2023-02-11T12:36:16;8.90;;;8.10;;
43216;SDS011;60511;42.686;23.300;2023-02-11T12:40:44;8.52;;;7.72;;
43216;SDS011;60511;42.686;23.300;2023-02-11T12:55:08;8.90;;;8.00;;
43216;SDS011;60511;42.686;23.300;2023-02-11T12:57:22;9.63;;;8.82;;
43216;SDS011;60511;42.686;23.300;2023-02-11T13:01:43;8.77;;;7.97;;
43216;SDS011;60511;42.686;23.300;2023-02-11T13:03:46;9.15;;;8.25;;
43216;SDS011;60511;42.686;23.300;2023-02-11T13:05:54;12.02;;;8.45;;
43216;SDS011;60511;42.686;23.300;2023-02-11T13:08:03;9.52;;;8.63;;
43216;SDS011;60511;42.686;23.300;2023-02-11T13:10:34;8.65;;;7.75;;
43216;SDS011;60511;42.686;23.300;2023-02-11T13:12:37;8.18;;;7.38;;
43216;SDS011;60511;42.686;23.300;2023-02-11T13:15:05;8.70;;;7.90;;
43216;SDS011;60511;42.686;23.300;2023-02-11T13:17:13;8.75;;;7.95;;
43216;SDS011;60511;42.686;23.300;2023-02-11T13:21:48;8.50;;;7.70;;
43216;SDS011;60511;42.686;23.300;2023-02-11T13:24:19;8.63;;;7.72;;
43216;SDS011;60511;42.686;23.300;2023-02-11T13:26:32;8.48;;;7.72;;
43216;SDS011;60511;42.686;23.300;2023-02-11T13:30:44;7.95;;;7.25;;
43216;SDS011;60511;42.686;23.300;2023-02-11T13:34:54;8.88;;;8.00;;
43216;SDS011;60511;42.686;23.300;2023-02-11T13:36:56;8.77;;;7.82;;
43216;SDS011;60511;42.686;23.300;2023-02-11T13:39:00;8.48;;;7.68;;
43216;SDS011;60511;42.686;23.300;2023-02-11T13:43:19;8.73;;;7.80;;
43216;SDS011;60511;42.686;23.300;2023-02-11T13:49:36;7.35;;;6.68;;
43216;SDS011;60511;42.686;23.300;2023-02-11T13:51:40;8.77;;;7.88;;
43216;SDS011;60511;42.686;23.300;2023-02-11T13:55:48;8.18;;;7.47;;
43216;SDS011;60511;42.686;23.300;2023-02-11T14:00:49;7.90;;;7.20;;